Time;durP1;ratioP1;P1;durP2;ratioP2;P2;SDS_P1;SDS_P2;PMS_P1;PMS_P2;Temp;Humidity;BMP_temperature;BMP_pressure;BME280_temperature;BME280_humidity;BME280_pressure;Samples;Min_cycle;Max_cycle;Signal;HPM_P1;HPM_P2
2023/02/27 00:01:29;;;;;;;;;;;22.00;53.00;;;;;;1574860;74;1145;-59
2023/02/27 00:03:31;;;;;;;;;;;22.00;53.20;;;;;;1567370;74;728;-59
2023/02/27 00:05:33;;;;;;;;;;;22.00;53.10;;;;;;1576264;74;710;-60
2023/02/27 00:07:34;;;;;;;;;;;21.90;53.40;;;;;;1567170;74;602;-58
2023/02/27 00:09:38;;;;;;;;;;;22.00;53.40;;;;;;1581667;74;673;-58
2023/02/27 00:11:41;;;;;;;;;;;22.00;53.40;;;;;;1564592;74;1923;-57
2023/02/27 00:13:43;;;;;;;;;;;22.10;53.60;;;;;;1548254;76;678;-60
2023/02/27 00:15:46;;;;;;;;;;;22.00;53.50;;;;;;1541277;76;785;-59
2023/02/27 00:17:48;;;;;;;;;;;22.00;53.80;;;;;;1547288;76;683;-60
2023/02/27 00:19:49;;;;;;;;;;;22.00;53.70;;;;;;1538399;76;684;-59
2023/02/27 00:21:51;;;;;;;;;;;22.00;53.60;;;;;;1555075;75;1625;-59
2023/02/27 00:23:54;;;;;;;;;;;22.00;53.60;;;;;;1534188;76;745;-58
2023/02/27 00:25:56;;;;;;;;;;;22.00;53.80;;;;;;1545572;76;787;-58
2023/02/27 00:27:57;;;;;;;;;;;22.10;53.70;;;;;;1538592;76;730;-59
2023/02/27 00:30:00;;;;;;;;;;;22.10;53.80;;;;;;1551085;76;649;-58
2023/02/27 00:32:02;;;;;;;;;;;22.10;53.60;;;;;;1546605;76;1937;-57
2023/02/27 00:34:04;;;;;;;;;;;22.10;53.70;;;;;;1539692;76;832;-60
2023/02/27 00:36:06;;;;;;;;;;;22.10;53.60;;;;;;1550854;76;1552;-57
2023/02/27 00:38:08;;;;;;;;;;;22.10;53.40;;;;;;1540342;76;639;-60
2023/02/27 00:40:10;;;;;;;;;;;22.10;53.40;;;;;;1544162;76;799;-59
2023/02/27 00:42:12;;;;;;;;;;;22.20;53.20;;;;;;1543349;76;1119;-60
2023/02/27 00:44:14;;;;;;;;;;;22.20;53.10;;;;;;1542053;76;783;-58
2023/02/27 00:46:15;;;;;;;;;;;22.30;53.20;;;;;;1548119;76;757;-59
2023/02/27 00:48:17;;;;;;;;;;;22.20;53.00;;;;;;1528592;76;719;-57
2023/02/27 00:50:19;;;;;;;;;;;22.20;52.90;;;;;;1541925;76;1561;-60
2023/02/27 00:52:21;;;;;;;;;;;22.20;53.10;;;;;;1531510;76;1942;-57
2023/02/27 00:54:23;;;;;;;;;;;22.30;53.20;;;;;;1534361;76;749;-59
2023/02/27 00:56:25;;;;;;;;;;;22.30;53.40;;;;;;1544686;76;731;-59
2023/02/27 00:58:27;;;;;;;;;;;22.20;53.30;;;;;;1548922;76;637;-58
2023/02/27 01:00:29;;;;;;;;;;;22.20;53.30;;;;;;1546816;75;1152;-63
2023/02/27 01:02:31;;;;;;;;;;;22.30;53.40;;;;;;1543467;76;700;-61
2023/02/27 01:04:33;;;;;;;;;;;22.30;53.50;;;;;;1535286;76;1519;-61
2023/02/27 01:06:34;;;;;;;;;;;22.20;53.20;;;;;;1535542;76;675;-62
2023/02/27 01:08:36;;;;;;;;;;;22.30;53.30;;;;;;1544425;75;674;-65
2023/02/27 01:10:38;;;;;;;;;;;22.30;53.20;;;;;;1549278;76;1135;-61
2023/02/27 01:12:40;;;;;;;;;;;22.40;53.20;;;;;;1554984;74;1940;-60
2023/02/27 01:14:43;;;;;;;;;;;22.30;53.30;;;;;;1586708;74;700;-61
2023/02/27 01:16:45;;;;;;;;;;;22.30;53.40;;;;;;1579343;74;669;-61
2023/02/27 01:18:46;;;;;;;;;;;22.30;53.30;;;;;;1578705;74;1328;-65
2023/02/27 01:20:52;;;;;;;;;;;22.40;53.10;;;;;;1577473;74;1127;-62
2023/02/27 01:22:54;;;;;;;;;;;22.40;53.10;;;;;;1579961;74;740;-64
2023/02/27 01:24:56;;;;;;;;;;;22.40;53.10;;;;;;1576622;73;682;-66
2023/02/27 01:26:57;;;;;;;;;;;22.40;53.10;;;;;;1580731;74;761;-61
2023/02/27 01:28:59;;;;;;;;;;;22.40;52.90;;;;;;1586740;74;745;-61
2023/02/27 01:31:01;;;;;;;;;;;22.40;52.80;;;;;;1579203;74;1930;-58
2023/02/27 01:33:03;;;;;;;;;;;22.40;52.90;;;;;;1575959;74;1601;-59
2023/02/27 01:35:05;;;;;;;;;;;22.30;52.90;;;;;;1589136;74;698;-59
2023/02/27 01:37:07;;;;;;;;;;;22.40;52.90;;;;;;1577199;74;677;-58
2023/02/27 01:39:09;;;;;;;;;;;22.40;52.80;;;;;;1579330;74;750;-59
2023/02/27 01:41:11;;;;;;;;;;;22.40;52.90;;;;;;1585346;74;1135;-58
2023/02/27 01:43:14;;;;;;;;;;;22.30;53.10;;;;;;1581734;74;737;-60
2023/02/27 01:45:18;;;;;;;;;;;22.20;52.90;;;;;;1578027;74;2039;-61
2023/02/27 01:47:20;;;;;;;;;;;22.20;53.10;;;;;;1584085;74;1878;-59
2023/02/27 01:49:23;;;;;;;;;;;22.20;53.20;;;;;;1568952;74;769;-58
2023/02/27 01:51:25;;;;;;;;;;;22.10;53.20;;;;;;1589070;74;1948;-58
2023/02/27 01:53:28;;;;;;;;;;;22.10;53.60;;;;;;1584350;74;768;-58
2023/02/27 01:55:30;;;;;;;;;;;22.10;53.80;;;;;;1581930;74;777;-58
2023/02/27 01:57:32;;;;;;;;;;;22.00;53.90;;;;;;1591660;74;674;-60
2023/02/27 01:59:34;;;;;;;;;;;22.10;53.80;;;;;;1574468;74;717;-58
2023/02/27 02:01:36;;;;;;;;;;;22.20;53.60;;;;;;1572454;74;1561;-59
2023/02/27 02:03:56;;;;;;;;;;;22.30;53.50;;;;;;1572717;74;750;-59
2023/02/27 02:05:59;;;;;;;;;;;22.30;53.40;;;;;;1580045;74;609;-57
2023/02/27 02:08:01;;;;;;;;;;;22.50;53.30;;;;;;1584237;74;676;-60
2023/02/27 02:10:02;;;;;;;;;;;22.40;53.00;;;;;;1571261;74;673;-58
2023/02/27 02:12:04;;;;;;;;;;;22.40;53.30;;;;;;1579877;74;1959;-57
2023/02/27 02:14:09;;;;;;;;;;;22.20;53.30;;;;;;1572654;73;674;-57
2023/02/27 02:16:11;;;;;;;;;;;22.10;53.40;;;;;;1569900;73;1994;-57
2023/02/27 02:18:27;;;;;;;;;;;22.10;53.60;;;;;;1569820;74;1537;-60
2023/02/27 02:20:44;;;;;;;;;;;22.10;53.90;;;;;;1580931;74;1924;-60
2023/02/27 02:23:00;;;;;;;;;;;22.10;54.00;;;;;;1572632;74;722;-57
2023/02/27 02:25:20;;;;;;;;;;;22.00;54.20;;;;;;1564586;75;801;-59
2023/02/27 02:27:26;;;;;;;;;;;22.00;54.20;;;;;;1566085;74;677;-58
2023/02/27 02:29:42;;;;;;;;;;;22.00;54.30;;;;;;1575023;74;1562;-57
2023/02/27 02:32:02;;;;;;;;;;;22.00;54.40;;;;;;1511497;75;1944;-60
2023/02/27 02:34:14;;;;;;;;;;;22.00;54.60;;;;;;1567875;75;654;-58
2023/02/27 02:36:21;;;;;;;;;;;22.00;54.50;;;;;;1567957;74;1587;-58
2023/02/27 02:38:36;;;;;;;;;;;21.90;54.80;;;;;;1575914;75;2006;-57
2023/02/27 02:40:43;;;;;;;;;;;21.90;54.70;;;;;;1574672;74;1134;-59
2023/02/27 02:42:47;;;;;;;;;;;21.90;54.90;;;;;;1575055;74;1572;-59
2023/02/27 02:45:08;;;;;;;;;;;21.90;54.70;;;;;;1569380;75;732;-61
2023/02/27 02:47:14;;;;;;;;;;;22.00;54.70;;;;;;1580181;75;683;-60
2023/02/27 02:49:17;;;;;;;;;;;21.90;54.80;;;;;;1579238;74;1888;-60
2023/02/27 02:51:23;;;;;;;;;;;21.90;54.80;;;;;;1575902;74;1955;-59
2023/02/27 02:53:39;;;;;;;;;;;22.00;54.70;;;;;;1575995;75;690;-60
2023/02/27 02:55:45;;;;;;;;;;;22.00;54.70;;;;;;1571132;74;1641;-58
2023/02/27 02:57:52;;;;;;;;;;;21.90;54.70;;;;;;1563495;74;1633;-57
2023/02/27 02:59:55;;;;;;;;;;;22.00;54.80;;;;;;1567570;74;1621;-57
2023/02/27 03:01:58;;;;;;;;;;;22.00;54.70;;;;;;1572028;74;1164;-58
2023/02/27 03:04:11;;;;;;;;;;;21.90;54.80;;;;;;1559073;74;1989;-60
2023/02/27 03:06:20;;;;;;;;;;;21.90;54.80;;;;;;1561593;74;1455;-59
2023/02/27 03:08:24;;;;;;;;;;;21.90;54.80;;;;;;1571223;75;1809;-59
2023/02/27 03:10:28;;;;;;;;;;;21.90;54.90;;;;;;1576689;74;1553;-58
2023/02/27 03:12:29;;;;;;;;;;;21.90;54.90;;;;;;1573721;74;1941;-57
2023/02/27 03:14:39;;;;;;;;;;;21.90;54.80;;;;;;1583479;74;768;-60
2023/02/27 03:16:42;;;;;;;;;;;21.90;54.90;;;;;;1569783;74;668;-59
2023/02/27 03:18:46;;;;;;;;;;;21.90;54.80;;;;;;1575267;74;1775;-58
2023/02/27 03:20:57;;;;;;;;;;;21.90;55.00;;;;;;1568745;74;1869;-59
2023/02/27 03:23:01;;;;;;;;;;;21.90;55.00;;;;;;1588654;73;705;-59
2023/02/27 03:25:04;;;;;;;;;;;21.90;54.70;;;;;;1576766;74;1584;-59
2023/02/27 03:27:06;;;;;;;;;;;22.00;54.90;;;;;;1591474;74;762;-60
2023/02/27 03:29:09;;;;;;;;;;;22.00;54.70;;;;;;1578000;74;744;-58
2023/02/27 03:31:19;;;;;;;;;;;22.00;54.80;;;;;;1577363;74;1815;-61
2023/02/27 03:33:32;;;;;;;;;;;22.00;54.80;;;;;;1573964;74;1937;-59
2023/02/27 03:35:35;;;;;;;;;;;22.00;54.70;;;;;;1563466;74;1053;-58
2023/02/27 03:37:54;;;;;;;;;;;22.00;54.80;;;;;;1573764;74;1918;-61
2023/02/27 03:40:05;;;;;;;;;;;22.00;54.90;;;;;;1578296;74;1477;-66
2023/02/27 03:42:23;;;;;;;;;;;22.00;54.70;;;;;;1576123;74;1147;-61
2023/02/27 03:44:30;;;;;;;;;;;22.00;54.70;;;;;;1587523;74;838;-66
2023/02/27 03:46:32;;;;;;;;;;;22.00;54.60;;;;;;1581653;74;691;-62
2023/02/27 03:48:33;;;;;;;;;;;22.00;54.60;;;;;;1580871;74;692;-66
2023/02/27 03:50:35;;;;;;;;;;;22.00;54.50;;;;;;1590336;74;1143;-62
2023/02/27 03:52:37;;;;;;;;;;;22.00;54.50;;;;;;1578443;74;1934;-63
2023/02/27 03:54:41;;;;;;;;;;;22.00;54.60;;;;;;1585377;74;730;-61
2023/02/27 03:56:54;;;;;;;;;;;22.00;54.70;;;;;;1585629;74;694;-62
2023/02/27 03:58:56;;;;;;;;;;;22.00;54.60;;;;;;1577685;74;726;-66
2023/02/27 04:00:58;;;;;;;;;;;22.00;54.40;;;;;;1578163;74;1089;-61
2023/02/27 04:03:00;;;;;;;;;;;22.10;54.50;;;;;;1580019;74;755;-70
2023/02/27 04:05:02;;;;;;;;;;;22.10;54.40;;;;;;1579394;74;709;-63
2023/02/27 04:07:23;;;;;;;;;;;22.10;54.30;;;;;;1571667;74;1561;-62
2023/02/27 04:09:36;;;;;;;;;;;22.10;54.20;;;;;;1587863;74;807;-64
2023/02/27 04:11:42;;;;;;;;;;;22.10;54.20;;;;;;1577453;74;1892;-59
2023/02/27 04:13:45;;;;;;;;;;;22.10;54.20;;;;;;1574066;74;1872;-59
2023/02/27 04:16:04;;;;;;;;;;;22.10;54.10;;;;;;1545905;75;655;-59
2023/02/27 04:18:26;;;;;;;;;;;22.10;54.20;;;;;;1547619;75;769;-58
2023/02/27 04:20:46;;;;;;;;;;;22.20;54.00;;;;;;1545872;74;2364;-59
2023/02/27 04:22:52;;;;;;;;;;;22.10;53.90;;;;;;1545126;75;658;-59
2023/02/27 04:25:04;;;;;;;;;;;22.20;54.00;;;;;;1553571;75;948;-60
2023/02/27 04:27:13;;;;;;;;;;;22.10;53.90;;;;;;1548069;75;678;-59
2023/02/27 04:29:17;;;;;;;;;;;22.20;53.90;;;;;;1552437;74;654;-58
2023/02/27 04:31:21;;;;;;;;;;;22.20;53.80;;;;;;1555124;75;1177;-61
2023/02/27 04:33:27;;;;;;;;;;;22.20;53.90;;;;;;1559943;75;1915;-67
2023/02/27 04:35:31;;;;;;;;;;;22.20;53.70;;;;;;1543270;75;1627;-65
2023/02/27 04:37:43;;;;;;;;;;;22.20;53.70;;;;;;1545819;75;1795;-61
2023/02/27 04:39:52;;;;;;;;;;;22.30;53.90;;;;;;1546849;75;665;-60
2023/02/27 04:41:55;;;;;;;;;;;22.20;53.70;;;;;;1564194;75;1157;-63
2023/02/27 04:43:57;;;;;;;;;;;22.30;53.70;;;;;;1563062;75;757;-62
2023/02/27 04:45:59;;;;;;;;;;;22.30;53.90;;;;;;1541297;75;687;-61
2023/02/27 04:48:02;;;;;;;;;;;22.30;53.70;;;;;;1547403;75;723;-61
2023/02/27 04:50:05;;;;;;;;;;;22.30;53.80;;;;;;1566115;74;1547;-63
2023/02/27 04:52:11;;;;;;;;;;;22.30;53.80;;;;;;1555384;75;1953;-57
2023/02/27 04:54:17;;;;;;;;;;;22.30;53.80;;;;;;1554925;74;1780;-59
2023/02/27 04:56:20;;;;;;;;;;;22.30;53.80;;;;;;1550591;75;681;-57
2023/02/27 04:58:27;;;;;;;;;;;22.30;53.70;;;;;;1553216;75;1096;-57
2023/02/27 05:00:29;;;;;;;;;;;22.30;53.80;;;;;;1553856;75;1114;-60
2023/02/27 05:02:35;;;;;;;;;;;22.40;53.70;;;;;;1569757;75;662;-58
2023/02/27 05:04:39;;;;;;;;;;;22.30;53.70;;;;;;1551893;75;1557;-58
2023/02/27 05:06:41;;;;;;;;;;;22.40;53.70;;;;;;1545546;75;704;-59
2023/02/27 05:08:51;;;;;;;;;;;22.40;53.70;;;;;;1552448;75;714;-59
2023/02/27 05:10:56;;;;;;;;;;;22.40;54.00;;;;;;1565316;75;1789;-57
2023/02/27 05:12:59;;;;;;;;;;;22.40;53.70;;;;;;1545298;75;1915;-58
2023/02/27 05:15:06;;;;;;;;;;;22.30;53.70;;;;;;1560658;74;2089;-58
2023/02/27 05:17:15;;;;;;;;;;;22.40;53.60;;;;;;1579470;74;1530;-58
2023/02/27 05:19:17;;;;;;;;;;;22.40;53.60;;;;;;1565464;74;657;-57
2023/02/27 05:21:21;;;;;;;;;;;22.50;53.60;;;;;;1579524;74;1188;-57
2023/02/27 05:23:24;;;;;;;;;;;22.40;53.50;;;;;;1581690;74;685;-59
2023/02/27 05:25:30;;;;;;;;;;;22.40;53.30;;;;;;1579596;74;756;-58
2023/02/27 05:27:37;;;;;;;;;;;22.40;53.40;;;;;;1571375;74;777;-60
2023/02/27 05:29:47;;;;;;;;;;;22.40;53.40;;;;;;1571649;74;771;-58
2023/02/27 05:31:52;;;;;;;;;;;22.50;53.50;;;;;;1576839;74;1360;-60
2023/02/27 05:33:56;;;;;;;;;;;22.50;54.30;;;;;;1574380;74;1941;-58
2023/02/27 05:35:59;;;;;;;;;;;22.50;54.50;;;;;;1582412;74;729;-58
2023/02/27 05:38:05;;;;;;;;;;;22.60;54.00;;;;;;1574438;74;755;-59
2023/02/27 05:40:08;;;;;;;;;;;22.50;54.20;;;;;;1579171;74;716;-59
2023/02/27 05:42:11;;;;;;;;;;;22.50;54.10;;;;;;1581480;74;1132;-60
2023/02/27 05:44:18;;;;;;;;;;;22.50;54.20;;;;;;1582614;74;781;-59
2023/02/27 05:46:21;;;;;;;;;;;22.50;54.10;;;;;;1576586;74;1549;-59
2023/02/27 05:48:25;;;;;;;;;;;22.60;54.10;;;;;;1564121;74;1107;-57
2023/02/27 05:50:28;;;;;;;;;;;22.60;53.90;;;;;;1574672;74;1131;-59
2023/02/27 05:52:29;;;;;;;;;;;22.60;53.90;;;;;;1572003;74;1929;-59
2023/02/27 05:54:33;;;;;;;;;;;22.60;53.20;;;;;;1561966;74;711;-58
2023/02/27 05:56:35;;;;;;;;;;;22.60;53.00;;;;;;1571811;74;726;-62
2023/02/27 05:58:50;;;;;;;;;;;22.60;52.50;;;;;;1579364;74;743;-61
2023/02/27 06:00:59;;;;;;;;;;;22.60;52.20;;;;;;1572726;74;1395;-62
2023/02/27 06:03:00;;;;;;;;;;;22.70;52.20;;;;;;1560921;74;693;-61
2023/02/27 06:05:02;;;;;;;;;;;22.60;51.90;;;;;;1568375;74;676;-61
2023/02/27 06:07:05;;;;;;;;;;;22.70;51.70;;;;;;1566783;74;772;-61
2023/02/27 06:09:07;;;;;;;;;;;22.70;51.80;;;;;;1559007;74;703;-64
2023/02/27 06:11:09;;;;;;;;;;;22.70;51.60;;;;;;1569645;74;1148;-62
2023/02/27 06:13:11;;;;;;;;;;;22.70;51.60;;;;;;1574122;74;1949;-61
2023/02/27 06:15:13;;;;;;;;;;;22.60;51.50;;;;;;1539861;75;1482;-62
2023/02/27 06:17:15;;;;;;;;;;;22.60;51.30;;;;;;1577164;73;810;-63
2023/02/27 06:19:17;;;;;;;;;;;22.70;51.50;;;;;;1565640;75;747;-63
2023/02/27 06:21:18;;;;;;;;;;;22.60;51.30;;;;;;1575882;74;1176;-60
2023/02/27 06:23:20;;;;;;;;;;;22.60;51.00;;;;;;1574502;74;713;-60
2023/02/27 06:25:22;;;;;;;;;;;22.60;51.30;;;;;;1580612;74;735;-60
2023/02/27 06:27:25;;;;;;;;;;;22.60;51.30;;;;;;1579803;74;1537;-60
2023/02/27 06:29:27;;;;;;;;;;;22.60;51.20;;;;;;1575037;74;759;-60
2023/02/27 06:31:29;;;;;;;;;;;22.60;51.00;;;;;;1583205;74;1171;-60
2023/02/27 06:33:32;;;;;;;;;;;22.60;51.00;;;;;;1580416;74;1939;-60
2023/02/27 06:35:33;;;;;;;;;;;22.60;50.90;;;;;;1574019;74;716;-60
2023/02/27 06:37:35;;;;;;;;;;;22.60;51.10;;;;;;1577486;74;763;-61
2023/02/27 06:39:37;;;;;;;;;;;22.60;51.40;;;;;;1575858;74;763;-59
2023/02/27 06:41:39;;;;;;;;;;;22.60;51.30;;;;;;1573808;75;1544;-59
2023/02/27 06:43:41;;;;;;;;;;;22.60;51.30;;;;;;1562893;73;736;-60
2023/02/27 06:45:43;;;;;;;;;;;22.60;51.40;;;;;;1575362;74;665;-60
2023/02/27 06:47:45;;;;;;;;;;;22.60;51.50;;;;;;1559893;75;696;-60
2023/02/27 06:49:46;;;;;;;;;;;22.60;51.30;;;;;;1567312;74;764;-60
2023/02/27 06:51:48;;;;;;;;;;;22.60;51.40;;;;;;1586318;74;1130;-59
2023/02/27 06:53:51;;;;;;;;;;;22.60;51.40;;;;;;1583884;74;1962;-62
2023/02/27 06:55:53;;;;;;;;;;;22.60;50.70;;;;;;1579112;74;1387;-58
2023/02/27 06:57:55;;;;;;;;;;;22.60;50.20;;;;;;1572485;74;772;-60
2023/02/27 06:59:56;;;;;;;;;;;22.70;48.60;;;;;;1580488;74;699;-60
2023/02/27 07:01:59;;;;;;;;;;;22.60;48.40;;;;;;1577708;74;1092;-61
2023/02/27 07:04:01;;;;;;;;;;;22.60;48.20;;;;;;1582607;74;727;-60
2023/02/27 07:06:03;;;;;;;;;;;22.50;48.20;;;;;;1576949;74;726;-61
2023/02/27 07:08:05;;;;;;;;;;;22.60;48.60;;;;;;1580729;74;746;-61
2023/02/27 07:10:07;;;;;;;;;;;22.60;48.80;;;;;;1581810;74;1552;-60
2023/02/27 07:12:09;;;;;;;;;;;22.60;48.90;;;;;;1584470;74;1148;-60
2023/02/27 07:14:13;;;;;;;;;;;22.60;49.20;;;;;;1577059;74;1933;-60
2023/02/27 07:16:15;;;;;;;;;;;22.60;49.20;;;;;;1583975;73;1664;-62
2023/02/27 07:18:17;;;;;;;;;;;22.60;49.10;;;;;;1592952;73;652;-61
2023/02/27 07:20:18;;;;;;;;;;;22.60;48.90;;;;;;1588350;74;735;-64
2023/02/27 07:22:20;;;;;;;;;;;22.60;49.10;;;;;;1587725;74;1169;-64
2023/02/27 07:24:22;;;;;;;;;;;22.60;49.10;;;;;;1584803;74;1570;-65
2023/02/27 07:26:24;;;;;;;;;;;22.60;49.20;;;;;;1585028;74;679;-64
2023/02/27 07:28:26;;;;;;;;;;;22.60;49.20;;;;;;1592545;74;684;-65
2023/02/27 07:30:29;;;;;;;;;;;22.60;49.00;;;;;;1591464;74;1148;-64
2023/02/27 07:32:31;;;;;;;;;;;22.60;49.10;;;;;;1586357;74;700;-63
2023/02/27 07:34:33;;;;;;;;;;;22.60;49.10;;;;;;1583161;74;1955;-64
2023/02/27 07:36:35;;;;;;;;;;;22.60;49.00;;;;;;1579436;74;710;-66
2023/02/27 07:38:37;;;;;;;;;;;22.70;49.00;;;;;;1578703;74;1540;-64
2023/02/27 07:40:40;;;;;;;;;;;22.70;49.00;;;;;;1589647;74;1120;-64
2023/02/27 07:42:42;;;;;;;;;;;22.60;48.90;;;;;;1578690;74;674;-65
2023/02/27 07:44:44;;;;;;;;;;;22.60;48.90;;;;;;1593235;74;664;-65
2023/02/27 07:46:46;;;;;;;;;;;22.60;49.00;;;;;;1594244;74;693;-64
2023/02/27 07:48:48;;;;;;;;;;;22.60;49.20;;;;;;1590999;74;632;-64
2023/02/27 07:50:50;;;;;;;;;;;22.60;49.40;;;;;;1590644;74;1230;-64
2023/02/27 07:52:52;;;;;;;;;;;22.60;49.30;;;;;;1593208;74;1330;-64
2023/02/27 07:54:54;;;;;;;;;;;22.60;49.40;;;;;;1593321;74;1936;-64
2023/02/27 07:56:55;;;;;;;;;;;22.60;49.30;;;;;;1592265;74;670;-63
2023/02/27 07:58:57;;;;;;;;;;;22.60;49.40;;;;;;1590627;74;692;-65
2023/02/27 08:00:59;;;;;;;;;;;22.60;49.30;;;;;;1589883;74;1122;-68
2023/02/27 08:03:01;;;;;;;;;;;22.70;49.30;;;;;;1589787;74;698;-63
2023/02/27 08:05:03;;;;;;;;;;;22.60;49.20;;;;;;1588594;74;712;-62
2023/02/27 08:07:05;;;;;;;;;;;22.60;49.30;;;;;;1593181;74;1547;-64
2023/02/27 08:09:07;;;;;;;;;;;22.60;49.30;;;;;;1591689;74;707;-62
2023/02/27 08:11:09;;;;;;;;;;;22.60;49.30;;;;;;1591906;74;1150;-62
2023/02/27 08:13:11;;;;;;;;;;;22.60;49.20;;;;;;1587221;74;1905;-59
2023/02/27 08:15:13;;;;;;;;;;;22.50;46.80;;;;;;1591798;73;745;-60
2023/02/27 08:17:15;;;;;;;;;;;22.50;47.20;;;;;;1586228;74;697;-59
2023/02/27 08:19:17;;;;;;;;;;;22.50;45.10;;;;;;1578421;74;747;-59
2023/02/27 08:21:18;;;;;;;;;;;22.50;44.30;;;;;;1584581;74;1547;-60
2023/02/27 08:23:20;;;;;;;;;;;22.40;42.40;;;;;;1591802;74;766;-60
2023/02/27 08:25:22;;;;;;;;;;;22.40;42.80;;;;;;1594017;74;873;-60
2023/02/27 08:27:24;;;;;;;;;;;22.20;40.70;;;;;;1592596;74;950;-60
2023/02/27 08:29:26;;;;;;;;;;;22.10;40.00;;;;;;1588486;74;745;-59
2023/02/27 08:31:28;;;;;;;;;;;22.10;40.50;;;;;;1592128;74;1155;-60
2023/02/27 08:33:30;;;;;;;;;;;22.10;40.20;;;;;;1589961;74;1953;-60
2023/02/27 08:35:32;;;;;;;;;;;22.00;38.60;;;;;;1589172;74;1561;-60
2023/02/27 08:37:34;;;;;;;;;;;22.10;40.90;;;;;;1591484;74;754;-59
2023/02/27 08:39:36;;;;;;;;;;;22.10;41.00;;;;;;1588390;74;749;-59
2023/02/27 08:41:38;;;;;;;;;;;22.10;40.50;;;;;;1593255;74;1157;-60
2023/02/27 08:43:39;;;;;;;;;;;22.00;41.00;;;;;;1589428;74;665;-61
2023/02/27 08:45:41;;;;;;;;;;;22.00;41.60;;;;;;1592530;74;685;-60
2023/02/27 08:47:44;;;;;;;;;;;22.00;42.30;;;;;;1584921;74;663;-61
2023/02/27 08:49:46;;;;;;;;;;;22.10;42.80;;;;;;1583356;73;1555;-60
2023/02/27 08:51:47;;;;;;;;;;;22.00;43.10;;;;;;1587839;74;1159;-60
2023/02/27 08:53:49;;;;;;;;;;;22.10;43.50;;;;;;1592371;74;1914;-60
2023/02/27 08:55:52;;;;;;;;;;;22.10;43.90;;;;;;1588358;74;708;-60
2023/02/27 08:57:54;;;;;;;;;;;22.10;44.20;;;;;;1590768;74;653;-59
2023/02/27 08:59:56;;;;;;;;;;;22.10;44.40;;;;;;1584236;74;596;-61
2023/02/27 09:01:58;;;;;;;;;;;22.10;44.80;;;;;;1582616;74;1128;-61
2023/02/27 09:04:00;;;;;;;;;;;22.20;45.00;;;;;;1578243;74;1488;-61
2023/02/27 09:06:02;;;;;;;;;;;22.20;45.20;;;;;;1586391;74;790;-60
2023/02/27 09:08:04;;;;;;;;;;;22.20;45.30;;;;;;1572946;74;729;-60
2023/02/27 09:10:06;;;;;;;;;;;22.20;45.40;;;;;;1573739;74;908;-61
2023/02/27 09:12:08;;;;;;;;;;;22.20;45.60;;;;;;1578343;74;1127;-60
2023/02/27 09:14:10;;;;;;;;;;;22.30;45.80;;;;;;1585916;74;1926;-61
2023/02/27 09:16:12;;;;;;;;;;;22.30;45.80;;;;;;1570605;74;1542;-61
2023/02/27 09:18:14;;;;;;;;;;;22.40;46.00;;;;;;1581688;74;706;-60
2023/02/27 09:20:16;;;;;;;;;;;22.40;46.10;;;;;;1577979;74;716;-60
2023/02/27 09:22:18;;;;;;;;;;;22.40;46.10;;;;;;1577679;74;1169;-61
2023/02/27 09:24:20;;;;;;;;;;;22.40;46.30;;;;;;1578305;74;715;-60
2023/02/27 09:26:22;;;;;;;;;;;22.40;46.40;;;;;;1581899;74;619;-60
2023/02/27 09:28:24;;;;;;;;;;;22.50;46.50;;;;;;1585363;74;724;-61
2023/02/27 09:30:28;;;;;;;;;;;22.40;46.50;;;;;;1579929;74;1541;-60
2023/02/27 09:32:31;;;;;;;;;;;22.40;46.50;;;;;;1585831;74;715;-60
2023/02/27 09:34:33;;;;;;;;;;;22.50;46.70;;;;;;1581795;74;1925;-61
2023/02/27 09:36:35;;;;;;;;;;;22.50;46.80;;;;;;1584392;74;661;-61
2023/02/27 09:38:37;;;;;;;;;;;22.50;46.90;;;;;;1578388;74;670;-61
2023/02/27 09:40:40;;;;;;;;;;;22.50;46.90;;;;;;1578793;74;1125;-60
2023/02/27 09:42:44;;;;;;;;;;;22.60;46.90;;;;;;1579225;74;686;-61
2023/02/27 09:44:50;;;;;;;;;;;22.50;46.90;;;;;;1582462;74;1657;-59
2023/02/27 09:46:52;;;;;;;;;;;22.60;47.40;;;;;;1581439;74;1867;-60
2023/02/27 09:48:58;;;;;;;;;;;22.60;47.70;;;;;;1579107;74;681;-59
2023/02/27 09:51:00;;;;;;;;;;;22.60;47.40;;;;;;1583260;74;1196;-59
2023/02/27 09:53:02;;;;;;;;;;;22.60;47.30;;;;;;1580586;74;721;-59
2023/02/27 09:55:05;;;;;;;;;;;22.60;47.30;;;;;;1580077;74;1937;-59
2023/02/27 09:57:07;;;;;;;;;;;22.60;47.30;;;;;;1585652;74;737;-60
2023/02/27 09:59:11;;;;;;;;;;;22.60;47.30;;;;;;1572905;74;1449;-60
2023/02/27 10:01:14;;;;;;;;;;;22.60;47.30;;;;;;1548207;75;1549;-60
2023/02/27 10:03:20;;;;;;;;;;;22.60;47.30;;;;;;1568964;74;712;-60
2023/02/27 10:05:24;;;;;;;;;;;22.60;47.40;;;;;;1582188;74;739;-65
2023/02/27 10:07:27;;;;;;;;;;;22.60;47.40;;;;;;1581623;74;1515;-60
2023/02/27 10:09:40;;;;;;;;;;;22.60;47.40;;;;;;1581700;74;1651;-60
2023/02/27 10:11:46;;;;;;;;;;;22.60;47.50;;;;;;1576980;75;1762;-58
2023/02/27 10:13:56;;;;;;;;;;;22.60;47.50;;;;;;1577287;74;1486;-60
2023/02/27 10:15:58;;;;;;;;;;;22.60;47.50;;;;;;1582886;74;1894;-60
2023/02/27 10:18:01;;;;;;;;;;;22.60;47.50;;;;;;1575462;75;962;-61
2023/02/27 10:20:04;;;;;;;;;;;22.60;47.70;;;;;;1569169;75;730;-60
2023/02/27 10:22:07;;;;;;;;;;;22.50;47.70;;;;;;1569558;75;1183;-60
2023/02/27 10:24:14;;;;;;;;;;;22.50;47.80;;;;;;1571529;75;759;-60
2023/02/27 10:26:20;;;;;;;;;;;22.50;47.80;;;;;;1569908;75;728;-60
2023/02/27 10:28:22;;;;;;;;;;;22.50;47.90;;;;;;1552149;75;1813;-58
2023/02/27 10:30:25;;;;;;;;;;;22.50;47.90;;;;;;1564654;75;666;-59
2023/02/27 10:32:28;;;;;;;;;;;22.50;48.10;;;;;;1563902;75;1125;-59
2023/02/27 10:34:30;;;;;;;;;;;22.50;47.60;;;;;;1566966;75;1935;-60
2023/02/27 10:36:32;;;;;;;;;;;22.50;47.30;;;;;;1573286;75;690;-58
2023/02/27 10:38:36;;;;;;;;;;;22.60;47.10;;;;;;1573024;75;676;-59
2023/02/27 10:40:38;;;;;;;;;;;22.60;46.90;;;;;;1571408;75;1329;-59
2023/02/27 10:42:40;;;;;;;;;;;22.70;46.80;;;;;;1572312;75;717;-61
2023/02/27 10:44:42;;;;;;;;;;;22.70;46.70;;;;;;1571374;75;679;-60
2023/02/27 10:46:44;;;;;;;;;;;22.70;46.60;;;;;;1573011;75;731;-59
2023/02/27 10:48:46;;;;;;;;;;;22.80;46.50;;;;;;1573027;75;765;-59
2023/02/27 10:50:52;;;;;;;;;;;22.80;46.40;;;;;;1569389;75;1160;-60
2023/02/27 10:52:53;;;;;;;;;;;22.80;46.40;;;;;;1571137;75;1211;-61
2023/02/27 10:54:55;;;;;;;;;;;22.80;46.30;;;;;;1567353;75;1913;-60
2023/02/27 10:57:16;;;;;;;;;;;22.80;46.30;;;;;;1571807;75;717;-60
2023/02/27 10:59:19;;;;;;;;;;;22.80;46.40;;;;;;1607166;72;698;-61
2023/02/27 11:01:21;;;;;;;;;;;22.80;46.50;;;;;;1602739;72;1206;-61
2023/02/27 11:05:55;;;;;;;;;;;22.80;46.50;;;;;;1490063;78;1856;-60
2023/02/27 11:07:59;;;;;;;;;;;22.80;46.50;;;;;;1510061;77;749;-60
2023/02/27 11:10:02;;;;;;;;;;;22.80;46.50;;;;;;1548052;74;1921;-60
2023/02/27 11:12:10;;;;;;;;;;;22.70;46.50;;;;;;1531659;75;1189;-60
2023/02/27 11:14:26;;;;;;;;;;;22.70;46.60;;;;;;1525525;76;1955;-60
2023/02/27 11:16:28;;;;;;;;;;;22.70;46.60;;;;;;1534157;76;624;-59
2023/02/27 11:18:30;;;;;;;;;;;22.70;46.60;;;;;;1531302;76;701;-60
2023/02/27 11:20:36;;;;;;;;;;;22.70;46.70;;;;;;1529271;76;1144;-62
2023/02/27 11:22:40;;;;;;;;;;;22.70;46.80;;;;;;1530748;76;687;-61
2023/02/27 11:24:42;;;;;;;;;;;22.70;46.70;;;;;;1534583;76;1506;-60
2023/02/27 11:26:48;;;;;;;;;;;22.70;46.70;;;;;;1542052;76;680;-60
2023/02/27 11:29:07;;;;;;;;;;;22.70;46.80;;;;;;1520994;76;1891;-60
2023/02/27 11:31:16;;;;;;;;;;;22.70;46.70;;;;;;1521846;76;1149;-60
2023/02/27 11:33:18;;;;;;;;;;;22.70;46.90;;;;;;1531607;76;720;-60
2023/02/27 11:35:24;;;;;;;;;;;22.70;47.00;;;;;;1530279;76;1950;-60
2023/02/27 11:37:33;;;;;;;;;;;22.70;47.00;;;;;;1526168;76;1680;-60
2023/02/27 11:39:37;;;;;;;;;;;22.70;47.10;;;;;;1524667;76;691;-60
2023/02/27 11:41:43;;;;;;;;;;;22.70;47.10;;;;;;1531780;76;1150;-61
2023/02/27 11:43:49;;;;;;;;;;;22.60;47.00;;;;;;1521291;76;1652;-62
2023/02/27 11:45:52;;;;;;;;;;;22.60;47.10;;;;;;1526481;76;738;-60
2023/02/27 11:47:55;;;;;;;;;;;22.60;47.10;;;;;;1530478;76;760;-60
2023/02/27 11:50:05;;;;;;;;;;;22.60;47.10;;;;;;1528654;76;808;-61
2023/02/27 11:52:09;;;;;;;;;;;22.60;47.10;;;;;;1516448;76;1635;-61
2023/02/27 11:54:12;;;;;;;;;;;22.60;47.20;;;;;;1523241;76;756;-61
2023/02/27 11:56:18;;;;;;;;;;;22.60;47.20;;;;;;1532603;76;1921;-60
2023/02/27 11:58:20;;;;;;;;;;;22.60;47.20;;;;;;1538881;75;680;-61
2023/02/27 12:00:33;;;;;;;;;;;22.60;47.20;;;;;;1524208;76;736;-60
2023/02/27 12:02:48;;;;;;;;;;;22.60;47.20;;;;;;1532626;76;665;-60
2023/02/27 12:04:53;;;;;;;;;;;22.50;47.30;;;;;;1537031;76;789;-61
2023/02/27 12:06:57;;;;;;;;;;;22.60;47.30;;;;;;1525832;76;719;-61
2023/02/27 12:09:00;;;;;;;;;;;22.50;47.40;;;;;;1529751;76;1856;-61
2023/02/27 12:11:06;;;;;;;;;;;22.50;47.40;;;;;;1524011;76;1115;-61
2023/02/27 12:13:12;;;;;;;;;;;22.50;47.40;;;;;;1529530;76;1816;-60
2023/02/27 12:15:15;;;;;;;;;;;22.50;47.40;;;;;;1530629;76;1972;-60
2023/02/27 12:17:28;;;;;;;;;;;22.60;47.30;;;;;;1529985;76;2155;-60
2023/02/27 12:19:32;;;;;;;;;;;22.50;47.30;;;;;;1525707;76;2043;-60
2023/02/27 12:21:35;;;;;;;;;;;22.50;47.40;;;;;;1540509;76;1099;-60